createdAt,value
2022-10-05T00:00:36.732Z,9.64
2022-10-05T00:03:11.855Z,9.65
2022-10-05T00:05:40.001Z,9.57
2022-10-05T00:08:15.040Z,9.47
2022-10-05T00:10:43.428Z,9.49
2022-10-05T00:13:17.614Z,9.53
2022-10-05T00:15:45.631Z,9.50
2022-10-05T00:18:16.224Z,9.42
2022-10-05T00:20:45.078Z,9.40
2022-10-05T00:23:19.346Z,9.44
2022-10-05T00:25:47.254Z,9.49
2022-10-05T00:28:19.893Z,9.49
2022-10-05T00:30:47.944Z,9.46
2022-10-05T00:33:15.595Z,9.32
2022-10-05T00:35:43.309Z,9.35
2022-10-05T00:38:11.047Z,9.38
2022-10-05T00:40:55.210Z,9.30
2022-10-05T00:43:36.834Z,9.28
2022-10-05T00:46:13.638Z,9.23
2022-10-05T00:48:49.313Z,9.24
2022-10-05T00:51:25.544Z,9.22
2022-10-05T00:54:08.568Z,9.23
2022-10-05T00:56:56.472Z,9.20
2022-10-05T00:59:42.499Z,9.11
2022-10-05T01:02:16.412Z,9.07
2022-10-05T01:04:50.624Z,8.99
2022-10-05T01:07:27.351Z,8.89
2022-10-05T01:10:02.583Z,8.78
2022-10-05T01:12:38.770Z,8.82
2022-10-05T01:15:12.055Z,8.79
2022-10-05T01:17:44.845Z,8.87
2022-10-05T01:20:26.375Z,8.92
2022-10-05T01:23:19.584Z,8.84
2022-10-05T01:25:57.973Z,8.88
2022-10-05T01:28:30.754Z,8.69
2022-10-05T01:31:06.256Z,8.84
2022-10-05T01:33:42.426Z,8.95
2022-10-05T01:36:17.953Z,8.99
2022-10-05T01:38:55.382Z,8.93
2022-10-05T01:41:34.156Z,8.91
2022-10-05T01:44:10.403Z,8.97
2022-10-05T01:46:43.506Z,8.97
2022-10-05T01:49:26.046Z,8.95
2022-10-05T01:51:57.731Z,8.94
2022-10-05T01:54:38.213Z,8.88
2022-10-05T01:57:14.416Z,8.87
2022-10-05T02:00:03.779Z,8.78
2022-10-05T02:02:35.849Z,8.82
2022-10-05T02:05:06.177Z,8.84
2022-10-05T02:07:39.797Z,8.86
2022-10-05T02:10:15.646Z,8.79
2022-10-05T02:12:45.710Z,8.80
2022-10-05T02:15:18.340Z,8.85
2022-10-05T02:17:50.486Z,8.78
2022-10-05T02:20:21.820Z,8.75
2022-10-05T02:22:54.278Z,8.78
2022-10-05T02:25:28.007Z,8.73
2022-10-05T02:28:00.497Z,8.66
2022-10-05T02:30:31.628Z,8.57
2022-10-05T02:33:02.547Z,8.66
2022-10-05T02:35:30.217Z,8.61
2022-10-05T02:38:07.392Z,8.67
2022-10-05T02:40:47.736Z,8.68
2022-10-05T02:43:24.933Z,8.64
2022-10-05T02:46:02.449Z,8.70
2022-10-05T02:48:42.028Z,8.58
2022-10-05T02:51:21.197Z,8.55
2022-10-05T02:54:01.935Z,8.50
2022-10-05T02:56:38.065Z,8.53
2022-10-05T02:59:15.844Z,8.44
2022-10-05T03:01:51.413Z,8.44
2022-10-05T03:04:30.517Z,8.35
2022-10-05T03:07:07.330Z,8.42
2022-10-05T03:09:40.246Z,8.43
2022-10-05T03:12:28.303Z,8.49
2022-10-05T03:15:04.958Z,8.57
2022-10-05T03:17:43.288Z,8.56
2022-10-05T03:20:22.369Z,8.45
2022-10-05T03:22:52.920Z,8.49
2022-10-05T03:25:35.132Z,8.13
2022-10-05T03:28:11.271Z,8.44
2022-10-05T03:30:48.249Z,8.47
2022-10-05T03:33:23.781Z,8.18
2022-10-05T03:35:57.499Z,8.18
2022-10-05T03:38:31.902Z,8.10
2022-10-05T03:41:09.745Z,8.07
2022-10-05T03:44:10.996Z,8.01
2022-10-05T03:46:59.135Z,8.02
2022-10-05T03:49:39.298Z,8.13
2022-10-05T03:52:12.519Z,8.11
2022-10-05T03:54:44.609Z,8.03
2022-10-05T03:57:16.745Z,8.02
2022-10-05T03:59:51.520Z,7.99
2022-10-05T04:02:25.921Z,7.98
2022-10-05T04:05:01.370Z,7.97
2022-10-05T04:07:39.014Z,8.08
2022-10-05T04:10:15.686Z,8.08
2022-10-05T04:12:47.159Z,8.09
2022-10-05T04:15:20.604Z,7.97
2022-10-05T04:17:52.838Z,8.02
2022-10-05T04:20:26.667Z,8.19
2022-10-05T04:23:03.948Z,8.11
2022-10-05T04:25:38.119Z,7.94
2022-10-05T04:28:14.329Z,7.95
2022-10-05T04:30:45.949Z,7.88
2022-10-05T04:33:15.930Z,7.86
2022-10-05T04:36:14.653Z,7.81
2022-10-05T04:38:53.867Z,7.85
2022-10-05T04:41:35.450Z,7.82
2022-10-05T04:44:17.187Z,7.72
2022-10-05T04:47:02.115Z,7.80
2022-10-05T04:49:45.724Z,7.81
2022-10-05T04:52:24.997Z,7.75
2022-10-05T04:55:05.089Z,7.83
2022-10-05T04:57:41.719Z,7.84
2022-10-05T05:00:23.968Z,7.80
2022-10-05T05:03:16.690Z,7.76
2022-10-05T05:06:15.223Z,7.78
2022-10-05T05:09:02.496Z,7.78
2022-10-05T05:11:39.446Z,7.67
2022-10-05T05:14:27.936Z,7.76
2022-10-05T05:17:13.173Z,7.75
2022-10-05T05:19:52.894Z,7.74
2022-10-05T05:22:29.956Z,7.86
2022-10-05T05:25:18.203Z,7.82
2022-10-05T05:27:50.391Z,7.88
2022-10-05T05:30:21.154Z,7.96
2022-10-05T05:32:59.905Z,7.93
2022-10-05T05:35:40.645Z,8.03
2022-10-05T05:38:23.197Z,7.96
2022-10-05T05:41:04.441Z,8.07
2022-10-05T05:43:42.519Z,8.21
2022-10-05T05:46:17.731Z,8.26
2022-10-05T05:48:48.425Z,8.16
2022-10-05T05:51:21.994Z,8.17
2022-10-05T05:53:53.403Z,8.19
2022-10-05T05:56:30.519Z,8.24
2022-10-05T05:59:04.354Z,8.20
2022-10-05T06:01:40.704Z,8.04
2022-10-05T06:04:15.771Z,8.02
2022-10-05T06:06:49.409Z,8.02
2022-10-05T06:09:22.324Z,8.10
2022-10-05T06:11:55.102Z,8.35
2022-10-05T06:14:30.376Z,8.57
2022-10-05T06:17:04.290Z,8.63
2022-10-05T06:19:35.041Z,8.69
2022-10-05T06:22:08.029Z,8.73
2022-10-05T06:24:41.654Z,9.00
2022-10-05T06:27:26.338Z,9.24
2022-10-05T06:30:06.273Z,9.28
2022-10-05T06:32:39.709Z,9.54
2022-10-05T06:35:19.082Z,9.33
2022-10-05T06:38:16.293Z,9.64
2022-10-05T06:41:01.242Z,10.13
2022-10-05T06:43:44.800Z,10.19
2022-10-05T06:46:18.798Z,10.72
2022-10-05T06:49:13.361Z,10.86
2022-10-05T06:51:48.942Z,11.15
2022-10-05T06:54:32.917Z,11.24
2022-10-05T06:57:05.960Z,11.19
2022-10-05T06:59:44.984Z,11.43
2022-10-05T07:02:24.512Z,11.87
2022-10-05T07:05:20.944Z,11.79
2022-10-05T07:07:54.959Z,12.12
2022-10-05T07:10:32.358Z,12.59
2022-10-05T07:13:36.665Z,12.29
2022-10-05T07:16:13.520Z,12.38
2022-10-05T07:18:56.421Z,12.86
2022-10-05T07:21:35.592Z,13.49
2022-10-05T07:24:14.957Z,13.38
2022-10-05T07:26:47.078Z,13.59
2022-10-05T07:29:24.579Z,14.39
2022-10-05T07:32:02.268Z,14.07
2022-10-05T07:34:41.639Z,13.99
2022-10-05T07:37:30.189Z,14.19
2022-10-05T07:40:07.912Z,14.45
2022-10-05T07:42:52.245Z,14.94
2022-10-05T07:45:29.301Z,14.93
2022-10-05T07:48:02.778Z,15.45
2022-10-05T07:50:36.821Z,16.89
2022-10-05T07:53:15.196Z,17.13
2022-10-05T07:55:49.153Z,16.59
2022-10-05T07:58:24.297Z,16.88
2022-10-05T08:01:05.829Z,16.92
2022-10-05T08:03:47.275Z,16.80
2022-10-05T08:06:35.802Z,16.83
2022-10-05T08:09:12.123Z,17.11
2022-10-05T08:11:49.189Z,17.42
2022-10-05T08:14:26.332Z,17.52
2022-10-05T08:16:58.765Z,17.64
2022-10-05T08:19:36.346Z,18.91
2022-10-05T08:22:07.252Z,19.34
2022-10-05T08:24:43.676Z,19.55
2022-10-05T08:27:18.114Z,19.91
2022-10-05T08:29:56.387Z,18.74
2022-10-05T08:32:26.830Z,18.85
2022-10-05T08:35:03.620Z,19.88
2022-10-05T08:37:35.502Z,20.00
2022-10-05T08:40:22.655Z,19.26
2022-10-05T08:43:15.777Z,19.63
2022-10-05T08:46:13.867Z,19.56
2022-10-05T08:49:17.007Z,19.41
2022-10-05T08:52:13.157Z,20.44
2022-10-05T08:55:08.450Z,20.62
2022-10-05T08:58:17.972Z,20.46
2022-10-05T09:00:56.782Z,19.82
2022-10-05T09:03:44.330Z,20.58
2022-10-05T09:06:51.690Z,20.88
2022-10-05T09:10:01.961Z,19.96
2022-10-05T09:13:19.223Z,20.19
2022-10-05T09:16:17.568Z,20.52
2022-10-05T09:19:19.229Z,20.86
2022-10-05T09:21:57.914Z,20.29
2022-10-05T09:24:42.856Z,19.92
2022-10-05T09:27:16.644Z,19.38
2022-10-05T09:30:18.393Z,19.38
2022-10-05T09:33:09.355Z,18.76
2022-10-05T09:36:24.948Z,18.29
2022-10-05T09:39:20.234Z,18.14
2022-10-05T09:42:23.282Z,17.65
2022-10-05T09:45:26.854Z,18.01
2022-10-05T09:48:27.897Z,18.11
2022-10-05T09:51:27.934Z,18.16
2022-10-05T09:54:37.039Z,18.07
2022-10-05T09:57:39.500Z,18.28
2022-10-05T10:00:16.584Z,18.00
2022-10-05T10:03:21.155Z,17.69
2022-10-05T10:06:14.967Z,17.58
2022-10-05T10:09:08.566Z,17.85
2022-10-05T10:11:55.330Z,18.01
2022-10-05T10:14:49.959Z,18.22
2022-10-05T10:17:35.298Z,18.13
2022-10-05T10:20:35.734Z,18.28
2022-10-05T10:23:16.866Z,18.51
2022-10-05T10:26:02.418Z,18.99
2022-10-05T10:29:00.259Z,19.66
2022-10-05T10:32:05.245Z,20.44
2022-10-05T10:35:09.479Z,20.98
2022-10-05T10:37:59.529Z,21.57
2022-10-05T10:40:38.830Z,22.72
2022-10-05T10:43:44.025Z,24.55
2022-10-05T10:46:25.236Z,24.41
2022-10-05T10:49:03.090Z,25.74
2022-10-05T10:51:54.800Z,26.18
2022-10-05T10:54:52.647Z,26.99
2022-10-05T10:57:29.873Z,26.55
2022-10-05T11:00:23.870Z,27.18
2022-10-05T11:03:34.012Z,27.23
2022-10-05T11:06:18.909Z,27.83
2022-10-05T11:09:09.799Z,29.24
2022-10-05T11:11:58.486Z,29.26
2022-10-05T11:14:53.769Z,28.85
2022-10-05T11:17:33.565Z,29.63
2022-10-05T11:20:49.053Z,30.20
2022-10-05T11:23:46.165Z,29.47
2022-10-05T11:26:32.430Z,29.48
2022-10-05T11:29:18.178Z,30.13
2022-10-05T11:32:17.835Z,30.91
2022-10-05T11:35:16.141Z,30.58
2022-10-05T11:38:02.877Z,30.68
2022-10-05T11:41:06.679Z,30.50
2022-10-05T11:44:06.109Z,30.19
2022-10-05T11:46:42.184Z,30.81
2022-10-05T11:49:27.898Z,30.12
2022-10-05T11:52:08.315Z,30.64
2022-10-05T11:55:11.438Z,32.08
2022-10-05T11:57:48.971Z,31.40
2022-10-05T12:00:19.705Z,30.29
2022-10-05T12:03:16.810Z,33.25
2022-10-05T12:05:58.687Z,32.04
2022-10-05T12:08:36.666Z,31.69
2022-10-05T12:11:26.252Z,31.76
2022-10-05T12:14:00.568Z,31.71
2022-10-05T12:16:34.785Z,31.33
2022-10-05T12:19:10.667Z,31.24
2022-10-05T12:21:45.740Z,31.19
2022-10-05T12:24:21.198Z,30.63
2022-10-05T12:26:59.131Z,31.13
2022-10-05T12:29:32.154Z,32.22
2022-10-05T12:32:05.304Z,31.52
2022-10-05T12:34:48.636Z,31.14
2022-10-05T12:37:38.814Z,30.71
2022-10-05T12:40:18.617Z,29.46
2022-10-05T12:42:53.082Z,29.09
2022-10-05T12:45:31.044Z,27.58
2022-10-05T12:48:18.815Z,27.20
2022-10-05T12:50:50.641Z,25.13
2022-10-05T12:53:43.131Z,24.19
2022-10-05T12:56:17.089Z,23.29
2022-10-05T12:58:53.667Z,22.57
2022-10-05T13:01:30.887Z,21.95
2022-10-05T13:04:15.165Z,21.58
2022-10-05T13:06:50.028Z,21.29
2022-10-05T13:09:29.214Z,21.07
2022-10-05T13:12:04.226Z,20.99
2022-10-05T13:14:52.046Z,20.58
2022-10-05T13:17:29.717Z,20.34
2022-10-05T13:20:00.168Z,20.15
2022-10-05T13:22:37.623Z,20.15
2022-10-05T13:25:22.649Z,19.88
2022-10-05T13:27:59.925Z,19.79
2022-10-05T13:30:28.687Z,19.89
2022-10-05T13:33:01.745Z,19.82
2022-10-05T13:35:44.930Z,19.70
2022-10-05T13:38:30.038Z,19.60
2022-10-05T13:41:06.515Z,19.61
2022-10-05T13:43:40.720Z,19.52
2022-10-05T13:46:18.597Z,19.59
2022-10-05T13:48:56.765Z,19.65
2022-10-05T13:51:28.128Z,19.61
2022-10-05T13:54:04.726Z,19.49
2022-10-05T13:56:38.525Z,19.49
2022-10-05T13:59:19.789Z,19.56
2022-10-05T14:01:53.652Z,19.46
2022-10-05T14:04:24.536Z,19.43
2022-10-05T14:07:22.848Z,19.36
2022-10-05T14:09:50.853Z,19.24
2022-10-05T14:12:23.348Z,18.99
2022-10-05T14:14:53.043Z,18.97
2022-10-05T14:17:38.991Z,19.31
2022-10-05T14:20:23.553Z,19.39
2022-10-05T14:22:55.615Z,19.15
2022-10-05T14:25:23.449Z,19.07
2022-10-05T14:28:00.701Z,18.87
2022-10-05T14:30:30.169Z,18.69
2022-10-05T14:33:07.886Z,18.62
2022-10-05T14:35:48.926Z,18.50
2022-10-05T14:38:22.783Z,18.45
2022-10-05T14:41:16.127Z,18.39
2022-10-05T14:43:53.598Z,18.57
2022-10-05T14:46:28.210Z,18.42
2022-10-05T14:49:13.815Z,18.43
2022-10-05T14:51:42.746Z,18.34
2022-10-05T14:54:31.025Z,18.34
2022-10-05T14:57:06.374Z,18.26
2022-10-05T15:00:04.253Z,18.53
2022-10-05T15:03:03.548Z,18.48
2022-10-05T15:05:36.793Z,18.46
2022-10-05T15:08:21.068Z,18.61
2022-10-05T15:10:52.191Z,18.37
2022-10-05T15:13:23.196Z,18.32
2022-10-05T15:15:55.494Z,18.23
2022-10-05T15:18:32.384Z,18.20
2022-10-05T15:21:17.348Z,18.01
2022-10-05T15:23:52.828Z,17.78
2022-10-05T15:26:36.406Z,17.78
2022-10-05T15:29:12.133Z,17.63
2022-10-05T15:31:50.196Z,17.68
2022-10-05T15:34:26.983Z,17.64
2022-10-05T15:37:00.306Z,17.61
2022-10-05T15:39:36.888Z,17.55
2022-10-05T15:42:08.146Z,17.49
2022-10-05T15:44:52.046Z,17.49
2022-10-05T15:47:26.628Z,17.45
2022-10-05T15:50:03.769Z,17.37
2022-10-05T15:52:37.702Z,17.37
2022-10-05T15:55:35.091Z,17.25
2022-10-05T15:58:36.799Z,17.21
2022-10-05T16:01:11.143Z,17.14
2022-10-05T16:03:49.083Z,17.05
2022-10-05T16:06:48.745Z,17.07
2022-10-05T16:09:33.152Z,17.02
2022-10-05T16:12:10.106Z,16.99
2022-10-05T16:14:55.056Z,16.89
2022-10-05T16:17:36.875Z,16.92
2022-10-05T16:20:21.844Z,16.91
2022-10-05T16:22:59.656Z,16.91
2022-10-05T16:25:35.202Z,16.83
2022-10-05T16:28:16.987Z,16.78
2022-10-05T16:30:55.929Z,16.60
2022-10-05T16:33:32.517Z,16.52
2022-10-05T16:36:10.530Z,16.51
2022-10-05T16:38:46.915Z,16.56
2022-10-05T16:41:20.916Z,16.50
2022-10-05T16:43:54.978Z,16.39
2022-10-05T16:46:30.699Z,16.36
2022-10-05T16:49:07.721Z,16.33
2022-10-05T16:51:44.445Z,16.20
2022-10-05T16:54:19.147Z,16.08
2022-10-05T16:56:52.182Z,15.99
2022-10-05T16:59:43.239Z,15.94
2022-10-05T17:02:20.609Z,16.05
2022-10-05T17:05:00.809Z,15.88
2022-10-05T17:07:50.351Z,15.81
2022-10-05T17:10:47.465Z,15.61
2022-10-05T17:13:29.609Z,15.56
2022-10-05T17:16:07.199Z,15.51
2022-10-05T17:19:19.181Z,15.48
2022-10-05T17:21:57.359Z,15.31
2022-10-05T17:24:34.303Z,15.27
2022-10-05T17:27:18.707Z,15.28
2022-10-05T17:29:51.731Z,15.25
2022-10-05T17:32:36.118Z,15.20
2022-10-05T17:35:18.800Z,15.09
2022-10-05T17:38:14.447Z,15.09
2022-10-05T17:41:05.486Z,15.11
2022-10-05T17:43:34.681Z,14.92
2022-10-05T17:46:06.162Z,15.05
2022-10-05T17:49:06.705Z,15.00
2022-10-05T17:52:17.963Z,14.94
2022-10-05T17:55:30.397Z,14.92
2022-10-05T17:58:01.977Z,14.79
2022-10-05T18:01:06.610Z,14.89
2022-10-05T18:03:40.739Z,14.97
2022-10-05T18:06:37.251Z,14.95
2022-10-05T18:09:30.697Z,14.88
2022-10-05T18:12:36.960Z,14.84
2022-10-05T18:15:31.133Z,14.83
2022-10-05T18:18:20.469Z,14.74
2022-10-05T18:21:08.381Z,14.65
2022-10-05T18:23:36.674Z,14.60
2022-10-05T18:26:20.678Z,14.59
2022-10-05T18:28:58.048Z,14.54
2022-10-05T18:31:34.312Z,14.48
2022-10-05T18:34:14.247Z,14.38
2022-10-05T18:37:08.537Z,14.40
2022-10-05T18:39:56.632Z,14.38
2022-10-05T18:42:33.585Z,14.34
2022-10-05T18:45:11.088Z,14.31
2022-10-05T18:47:48.239Z,14.31
2022-10-05T18:50:26.597Z,14.29
2022-10-05T18:53:09.563Z,14.28
2022-10-05T18:55:42.453Z,14.26
2022-10-05T18:58:25.901Z,14.19
2022-10-05T19:01:14.584Z,14.15
2022-10-05T19:03:56.522Z,14.05
2022-10-05T19:06:27.966Z,14.02
2022-10-05T19:09:08.323Z,14.02
2022-10-05T19:11:43.033Z,14.06
2022-10-05T19:14:18.586Z,13.99
2022-10-05T19:16:58.659Z,13.94
2022-10-05T19:19:43.807Z,13.85
2022-10-05T19:22:19.665Z,13.92
2022-10-05T19:25:07.133Z,13.85
2022-10-05T19:27:45.243Z,13.65
2022-10-05T19:30:19.766Z,13.57
2022-10-05T19:33:08.657Z,13.58
2022-10-05T19:35:53.626Z,13.58
2022-10-05T19:38:30.296Z,13.46
2022-10-05T19:41:04.343Z,13.49
2022-10-05T19:43:43.122Z,13.58
2022-10-05T19:46:19.865Z,13.53
2022-10-05T19:48:49.776Z,13.50
2022-10-05T19:51:29.389Z,13.45
2022-10-05T19:54:01.214Z,13.42
2022-10-05T19:56:33.424Z,13.37
2022-10-05T19:59:14.082Z,13.26
2022-10-05T20:01:49.077Z,13.21
2022-10-05T20:04:33.037Z,13.19
2022-10-05T20:07:02.924Z,13.08
2022-10-05T20:09:49.392Z,13.03
2022-10-05T20:12:17.103Z,13.05
2022-10-05T20:15:04.820Z,12.96
2022-10-05T20:17:49.715Z,12.99
2022-10-05T20:20:38.263Z,12.92
2022-10-05T20:23:24.337Z,12.78
2022-10-05T20:26:06.074Z,12.76
2022-10-05T20:28:34.154Z,12.71
2022-10-05T20:31:01.892Z,12.74
2022-10-05T20:33:30.348Z,12.69
2022-10-05T20:35:58.021Z,12.71
2022-10-05T20:38:27.426Z,12.73
2022-10-05T20:40:55.386Z,12.69
2022-10-05T20:43:23.082Z,12.64
2022-10-05T20:45:53.684Z,12.63
2022-10-05T20:48:21.355Z,12.63
2022-10-05T20:50:49.026Z,12.59
2022-10-05T20:53:16.693Z,12.63
2022-10-05T20:55:45.740Z,12.50
2022-10-05T20:58:13.444Z,12.67
2022-10-05T21:00:58.840Z,12.58
2022-10-05T21:03:27.020Z,12.54
2022-10-05T21:05:54.652Z,12.52
2022-10-05T21:08:22.322Z,12.47
2022-10-05T21:10:51.421Z,12.46
2022-10-05T21:13:19.070Z,12.41
2022-10-05T21:15:46.734Z,12.42
2022-10-05T21:18:15.666Z,12.34
2022-10-05T21:20:50.487Z,12.23
2022-10-05T21:23:18.150Z,12.35
2022-10-05T21:25:45.793Z,12.35
2022-10-05T21:28:15.152Z,12.35
2022-10-05T21:30:42.861Z,12.30
2022-10-05T21:33:10.719Z,12.31
2022-10-05T21:35:38.380Z,12.33
2022-10-05T21:38:06.033Z,12.32
2022-10-05T21:40:33.704Z,12.33
2022-10-05T21:43:02.267Z,12.31
2022-10-05T21:45:31.944Z,12.34
2022-10-05T21:47:59.785Z,12.35
2022-10-05T21:50:27.832Z,12.32
2022-10-05T21:52:55.687Z,12.29
2022-10-05T21:55:23.376Z,12.23
2022-10-05T21:57:51.130Z,12.12
2022-10-05T22:00:19.162Z,12.13
2022-10-05T22:02:48.288Z,12.11
2022-10-05T22:05:16.438Z,11.91
2022-10-05T22:07:44.170Z,12.08
2022-10-05T22:10:11.968Z,12.05
2022-10-05T22:12:41.439Z,11.98
2022-10-05T22:15:10.101Z,11.83
2022-10-05T22:17:38.810Z,12.00
2022-10-05T22:20:11.555Z,12.07
2022-10-05T22:22:39.189Z,11.98
2022-10-05T22:25:07.715Z,11.76
2022-10-05T22:27:36.492Z,11.92
2022-10-05T22:30:05.655Z,11.88
2022-10-05T22:32:33.379Z,11.90
2022-10-05T22:35:01.055Z,11.84
2022-10-05T22:37:30.056Z,11.87
2022-10-05T22:39:57.757Z,11.88
2022-10-05T22:42:25.516Z,11.85
2022-10-05T22:44:53.160Z,11.81
2022-10-05T22:47:20.811Z,11.82
2022-10-05T22:49:48.454Z,11.81
2022-10-05T22:52:16.215Z,11.81
2022-10-05T22:54:45.261Z,11.83
2022-10-05T22:57:13.097Z,11.88
2022-10-05T22:59:40.734Z,11.80
2022-10-05T23:02:09.511Z,11.81
2022-10-05T23:04:37.510Z,11.79
2022-10-05T23:11:01.521Z,11.69
2022-10-05T23:13:29.304Z,11.74
2022-10-05T23:15:57.070Z,11.72
2022-10-05T23:18:25.519Z,11.57
2022-10-05T23:20:54.696Z,11.66
2022-10-05T23:23:22.852Z,11.64
2022-10-05T23:26:33.519Z,11.56
2022-10-05T23:29:05.284Z,11.59
2022-10-05T23:31:33.589Z,11.51
2022-10-05T23:34:01.413Z,11.45
2022-10-05T23:36:32.286Z,11.52
2022-10-05T23:39:01.017Z,11.49
2022-10-05T23:41:28.773Z,11.50
2022-10-05T23:43:56.678Z,11.53
2022-10-05T23:46:25.800Z,11.50
2022-10-05T23:48:53.527Z,11.50
2022-10-05T23:51:21.238Z,11.50
2022-10-05T23:53:48.960Z,11.55
2022-10-05T23:56:16.724Z,11.51
2022-10-05T23:58:44.966Z,11.55
